Euskara    
Meteorología y climatología de Navarra
Datos de la estación - Meteo Navarra

Estación de Carrascal GN

Altitud 568 m.


Datos desde el 08/04/2021 hasta el 09/04/2021 en horario solar
Los datos son PROVISIONALES

Anterior Página 1 de 1 Siguiente Descargar: Formato para Excel 2000 o superior   Formato csv   Formato para OpenOffice Calc
Fecha Temperatura Humedad relativa Radiación global Insolación Precipitación Vel. viento 10 m Vel. viento 10 m Dir. viento 10 m
°C % W/m² s l/m² m/s km/h °
08/04/2021 0:00 5.2 59 0.0 0 0.0 4.1 14.9 183
08/04/2021 0:10 5.6 59 0.0 0 0.0 2.7 9.6 204
08/04/2021 0:20 4.9 65 0.0 0 0.0 2.8 10.0 194
08/04/2021 0:30 5.8 68 0.0 0 0.0 3.7 13.5 197
08/04/2021 0:40 5.2 69 0.0 0 0.0 2.8 10.2 218
08/04/2021 0:50 4.8 73 0.0 0 0.0 3.0 10.8 207
08/04/2021 1:00 5.3 74 0.0 0 0.0 3.1 11.3 211
08/04/2021 1:10 5.1 75 0.0 0 0.0 3.2 11.5 211
08/04/2021 1:20 4.7 77 0.0 0 0.0 3.5 12.7 205
08/04/2021 1:30 4.7 77 0.0 0 0.0 3.7 13.4 212
08/04/2021 1:40 4.7 77 0.0 0 0.0 4.9 17.7 212
08/04/2021 1:50 4.4 76 0.0 0 0.0 4.2 15.0 210
08/04/2021 2:00 4.5 77 0.0 0 0.0 4.6 16.5 217
08/04/2021 2:10 2.8 74 0.0 0 0.0 4.1 14.9 237
08/04/2021 2:20 2.9 72 0.0 0 0.0 3.1 11.1 239
08/04/2021 2:30 3.3 72 0.0 0 0.0 3.1 11.2 245
08/04/2021 2:40 3.2 73 0.0 0 0.0 3.4 12.3 236
08/04/2021 2:50 2.7 73 0.0 0 0.0 3.6 13.0 249
08/04/2021 3:00 1.9 74 0.0 0 0.0 3.6 12.9 238
08/04/2021 3:10 2.2 74 0.0 0 0.0 5.1 18.4 249
08/04/2021 3:20 2.4 75 0.0 0 0.0 4.9 17.6 250
08/04/2021 3:30 1.7 78 0.0 0 0.0 3.2 11.3 240
08/04/2021 3:40 1.8 80 0.0 0 0.0 3.5 12.5 252
08/04/2021 3:50 1.6 81 0.0 0 0.0 3.7 13.2 235
08/04/2021 4:00 1.6 84 0.0 0 0.0 4.0 14.4 240
08/04/2021 4:10 1.2 84 0.0 0 0.0 3.9 13.9 238
08/04/2021 4:20 0.8 85 0.0 0 0.0 2.9 10.3 228
08/04/2021 4:30 0.6 87 0.0 0 0.0 2.0 7.2 204
08/04/2021 4:40 0.5 88 0.0 0 0.0 2.5 8.9 205
08/04/2021 4:50 0.1 89 0.0 0 0.0 2.6 9.3 203
08/04/2021 5:00 -0.2 89 0.0 0 0.0 2.4 8.7 197
08/04/2021 5:10 -0.4 90 0.0 0 0.0 2.1 7.7 202
08/04/2021 5:20 -0.1 91 0.0 0 0.0 1.7 6.3 210
08/04/2021 5:30 -0.3 91 0.0 0 0.0 1.8 6.6 194
08/04/2021 5:40 -0.2 92 0.0 0 0.0 1.9 6.7 192
08/04/2021 5:50 -0.4 92 0.0 0 0.0 2.0 7.2 205
08/04/2021 6:00 0.2 94 14.4 0 0.0 1.6 5.7 190
08/04/2021 6:10 0.7 94 33.0 0 0.0 1.6 5.9 206
08/04/2021 6:20 0.9 93 47.6 0 0.0 1.8 6.6 202
08/04/2021 6:30 1.6 93 57.7 0 0.0 1.5 5.3 228
08/04/2021 6:40 2.5 94 113.5 500 0.0 1.9 6.8 252
08/04/2021 6:50 3.9 91 146.0 600 0.0 2.8 10.0 243
08/04/2021 7:00 4.6 86 161.1 454 0.0 3.7 13.4 231
08/04/2021 7:10 5.2 83 94.1 6 0.0 3.9 13.9 236
08/04/2021 7:20 4.9 83 116.0 0 0.0 4.1 14.9 242
08/04/2021 7:30 4.9 84 125.7 0 0.0 4.0 14.3 243
08/04/2021 7:40 5.4 82 132.4 0 0.0 3.5 12.5 243
08/04/2021 7:50 5.3 83 132.8 0 0.0 2.8 10.2 240
08/04/2021 8:00 5.9 83 137.8 0 0.0 3.0 10.7 218
08/04/2021 8:10 6.3 79 143.8 0 0.0 4.1 14.8 218
08/04/2021 8:20 7.0 77 160.2 0 0.0 4.3 15.3 205
08/04/2021 8:30 7.8 72 161.5 0 0.0 6.0 21.6 205
08/04/2021 8:40 7.5 74 171.8 0 0.0 5.5 19.8 205
08/04/2021 8:50 8.2 70 209.1 0 0.0 6.1 21.9 189
08/04/2021 9:00 8.7 68 196.4 0 0.0 6.2 22.2 187
08/04/2021 9:10 8.6 68 230.6 0 0.0 6.2 22.2 185
08/04/2021 9:20 9.2 67 256.9 0 0.0 5.6 20.1 178
08/04/2021 9:30 9.4 66 269.9 0 0.0 5.5 19.9 184
08/04/2021 9:40 9.7 66 264.9 0 0.0 4.9 17.6 186
08/04/2021 9:50 10.1 65 287.9 0 0.0 3.5 12.7 167
08/04/2021 10:00 11.1 62 375.0 166 0.0 3.8 13.8 166
08/04/2021 10:10 11.5 62 359.6 110 0.0 3.4 12.2 166
08/04/2021 10:20 11.7 60 342.5 10 0.0 4.4 15.8 169
08/04/2021 10:30 11.4 61 286.8 0 0.0 4.4 15.8 171
08/04/2021 10:40 11.5 61 323.5 0 0.0 4.8 17.1 161
08/04/2021 10:50 11.9 60 435.9 398 0.0 6.0 21.5 179
08/04/2021 11:00 12.2 60 508.2 600 0.0 5.5 19.7 180
08/04/2021 11:10 12.8 58 488.4 374 0.0 5.9 21.2 179
08/04/2021 11:20 12.6 59 369.6 106 0.0 5.7 20.3 185
08/04/2021 11:30 12.9 59 568.2 446 0.0 6.6 23.8 188
08/04/2021 11:40 13.3 57 674.8 600 0.0 6.6 23.6 187
08/04/2021 11:50 13.8 56 633.3 484 0.0 6.1 22.1 180
08/04/2021 12:00 14.3 54 559.9 484 0.0 4.8 17.3 154
08/04/2021 12:10 14.1 54 564.7 530 0.0 5.4 19.6 169
08/04/2021 12:20 14.3 55 676.3 596 0.0 5.5 19.7 184
08/04/2021 12:30 15.2 52 823.0 600 0.0 7.5 27.0 196
08/04/2021 12:40 15.4 51 895.0 600 0.0 7.5 27.0 188
08/04/2021 12:50 15.8 50 872.0 600 0.0 6.5 23.4 188
08/04/2021 13:00 16.4 49 909.0 600 0.0 6.1 22.1 184
08/04/2021 13:10 16.6 48 869.0 600 0.0 5.4 19.5 191
08/04/2021 13:20 17.0 48 797.8 600 0.0 5.1 18.3 182
08/04/2021 13:30 17.1 47 714.8 600 0.0 4.9 17.8 191
08/04/2021 13:40 16.8 48 690.3 600 0.0 6.5 23.3 195
08/04/2021 13:50 16.3 48 695.6 600 0.0 6.0 21.6 192
08/04/2021 14:00 16.7 48 536.2 600 0.0 5.8 20.9 183
08/04/2021 14:10 15.9 51 485.0 600 0.0 5.8 20.8 191
08/04/2021 14:20 15.8 50 509.1 600 0.0 5.5 19.7 198
08/04/2021 14:30 17.0 48 782.6 600 0.0 4.9 17.6 185
08/04/2021 14:40 16.8 47 390.3 326 0.0 5.7 20.5 192
08/04/2021 14:50 16.6 49 625.9 600 0.0 6.3 22.8 193
08/04/2021 15:00 16.8 47 611.2 600 0.0 6.1 22.0 199
08/04/2021 15:10 17.9 45 684.2 600 0.0 5.0 17.9 202
08/04/2021 15:20 17.9 45 630.1 600 0.0 5.5 19.9 199
08/04/2021 15:30 18.0 45 567.0 600 0.0 5.7 20.4 198
08/04/2021 15:40 17.8 44 533.2 600 0.0 4.8 17.1 195
08/04/2021 15:50 18.3 43 503.1 600 0.0 4.7 17.0 197
08/04/2021 16:00 18.1 44 470.2 600 0.0 5.5 19.8 196
08/04/2021 16:10 18.2 44 430.6 600 0.0 4.6 16.6 199
08/04/2021 16:20 18.0 44 366.9 552 0.0 4.3 15.4 197
08/04/2021 16:30 18.0 44 374.7 600 0.0 4.9 17.5 206
08/04/2021 16:40 18.1 44 340.1 600 0.0 4.4 15.7 211
08/04/2021 16:50 17.7 44 248.9 482 0.0 4.0 14.3 199
08/04/2021 17:00 17.2 47 261.4 600 0.0 4.1 14.8 198
08/04/2021 17:10 17.2 46 218.7 600 0.0 4.6 16.6 197
08/04/2021 17:20 15.9 53 87.3 26 0.0 3.9 14.0 216
08/04/2021 17:30 14.9 57 86.4 12 0.0 3.2 11.7 217
08/04/2021 17:40 14.5 58 73.5 0 0.0 3.7 13.3 218
08/04/2021 17:50 14.2 60 45.8 0 0.0 3.6 13.0 225
08/04/2021 18:00 13.9 61 35.9 0 0.0 3.1 11.3 224
08/04/2021 18:10 13.4 63 30.6 0 0.0 2.4 8.7 209
08/04/2021 18:20 13.2 66 24.1 0 0.0 2.7 9.8 199
08/04/2021 18:30 12.7 67 0.7 0 0.0 3.3 11.9 195
08/04/2021 18:40 12.4 68 0.0 0 0.0 3.1 11.1 201
08/04/2021 18:50 11.9 70 0.0 0 0.0 2.9 10.3 204
08/04/2021 19:00 11.2 74 0.0 0 0.0 2.7 9.8 209
08/04/2021 19:10 11.5 72 0.0 0 0.0 3.4 12.1 202
08/04/2021 19:20 11.6 72 0.0 0 0.0 3.2 11.6 195
08/04/2021 19:30 11.8 70 0.0 0 0.0 2.4 8.6 182
08/04/2021 19:40 12.3 71 0.0 0 0.0 2.9 10.5 172
08/04/2021 19:50 12.6 66 0.0 0 0.0 4.2 15.2 171
08/04/2021 20:00 12.5 69 0.0 0 0.0 2.9 10.5 204
08/04/2021 20:10 11.6 74 0.0 0 0.0 3.4 12.2 208
08/04/2021 20:20 11.8 72 0.0 0 0.0 3.7 13.2 198
08/04/2021 20:30 11.8 72 0.0 0 0.0 3.7 13.1 205
08/04/2021 20:40 11.5 73 0.0 0 0.0 4.0 14.3 204
08/04/2021 20:50 11.3 73 0.0 0 0.0 4.0 14.4 208
08/04/2021 21:00 11.0 74 0.0 0 0.0 3.5 12.7 208
08/04/2021 21:10 10.6 75 0.0 0 0.0 3.5 12.4 198
08/04/2021 21:20 10.7 73 0.0 0 0.0 4.6 16.5 197
08/04/2021 21:30 10.6 73 0.0 0 0.0 5.0 18.1 195
08/04/2021 21:40 10.5 73 0.0 0 0.0 3.8 13.8 200
08/04/2021 21:50 9.7 76 0.0 0 0.0 4.3 15.6 216
08/04/2021 22:00 9.6 76 0.0 0 0.0 4.8 17.2 223
08/04/2021 22:10 10.1 75 0.0 0 0.0 5.4 19.3 221
08/04/2021 22:20 10.1 74 0.0 0 0.0 5.7 20.6 224
08/04/2021 22:30 10.1 74 0.0 0 0.0 4.7 17.1 222
08/04/2021 22:40 9.9 75 0.0 0 0.0 4.5 16.3 217
08/04/2021 22:50 9.5 76 0.0 0 0.0 4.7 17.0 220
08/04/2021 23:00 9.0 79 0.0 0 0.0 4.6 16.4 212
08/04/2021 23:10 8.6 82 0.0 0 0.0 4.9 17.5 214
08/04/2021 23:20 9.1 81 0.0 0 0.0 4.7 16.8 202
08/04/2021 23:30 9.1 82 0.0 0 0.0 5.5 19.8 195
08/04/2021 23:40 9.0 81 0.0 0 0.0 5.6 20.2 200
08/04/2021 23:50 8.8 82 0.0 0 0.0 4.9 17.6 212
Anterior Página 1 de 1 Siguiente

NOTA: Tipo de datos según el color:
   - Valores diarios o 10 minutos correctos
   - Valores diarios calculados a partir de un número de datos 10 minutos menor que 144 y mayor que 120, o de un número de datos semihorarios menor que 48 y mayor que 40 (caso de las estaciones de INTIA Y Ministerio)
   - Valores diez minutos estimados


Contacto        Enlaces        Aviso legal